Date,TemperatureHighF,TemperatureAvgF,TemperatureLowF,DewpointHighF,DewpointAvgF,DewpointLowF,HumidityHigh,HumidityAvg,HumidityLow,PressureMaxIn,PressureMinIn,WindSpeedMaxMPH,WindSpeedAvgMPH,GustSpeedMaxMPH,PrecipitationSumIn
2014-1-1,38.7,34.2,29.3,32.0,28.1,22.7,79,78,74,30.30,30.21,4,0,6,0.00
2014-1-2,50.9,40.2,32.4,35.6,28.3,21.1,79,65,33,30.21,30.03,4,0,7,0.00
2014-1-3,45.3,41.1,32.5,39.2,30.8,19.3,80,68,40,30.24,30.03,6,0,9,0.28
2014-1-4,32.9,30.3,27.0,27.2,24.4,21.4,80,79,76,30.32,30.21,5,0,7,0.00
2014-1-5,38.7,29.3,22.8,33.8,23.1,17.3,80,77,65,30.35,30.18,5,0,8,0.00
2014-1-6,41.5,33.8,26.2,33.8,25.0,20.3,79,71,45,30.24,30.12,4,0,4,0.00
2014-1-7,48.7,44.4,37.8,42.8,37.6,30.6,80,76,50,30.15,29.97,4,0,5,0.39
2014-1-8,53.1,47.4,42.4,46.4,37.4,26.1,80,68,38,30.03,29.85,11,1,13,0.47
2014-1-9,49.1,44.8,40.8,41.0,32.9,21.6,80,64,39,30.09,29.97,8,1,13,0.16
2014-1-10,52.3,47.8,44.8,44.6,34.4,25.6,79,61,36,30.18,29.82,5,0,8,0.00
2014-1-11,58.5,46.8,42.4,41.0,25.6,17.5,76,45,22,30.06,29.68,12,3,25,0.67
2014-1-12,49.5,45.8,41.4,41.0,34.4,21.0,77,65,41,30.47,30.06,5,1,7,0.59
2014-1-13,53.1,45.8,34.9,42.8,32.0,18.7,79,62,27,30.59,30.44,4,0,5,0.04
2014-1-14,50.5,38.2,32.2,37.4,26.6,17.6,80,66,28,30.59,30.47,4,0,4,0.00
2014-1-15,36.7,33.9,31.8,30.5,27.8,26.0,80,78,76,30.50,30.38,4,0,6,0.00
2014-1-16,34.9,32.2,29.8,27.6,25.4,23.2,77,76,75,30.41,30.24,4,0,4,0.00
2014-1-17,37.0,31.8,28.8,30.2,25.0,21.9,76,75,75,30.24,30.12,4,0,5,0.00
2014-1-18,40.8,32.7,28.4,33.8,26.3,21.7,80,77,75,30.24,30.12,7,0,9,0.00
2014-1-19,44.8,35.0,30.2,33.8,27.6,23.9,81,75,44,30.18,30.09,5,0,6,0.00
2014-1-20,37.8,34.6,31.8,32.0,29.1,26.3,81,80,78,30.24,30.18,3,0,4,0.00
2014-1-21,44.1,34.6,30.2,39.2,28.9,24.7,82,79,61,30.32,30.18,7,1,8,0.00
2014-1-22,43.7,38.6,32.7,33.8,29.0,24.3,81,69,47,30.32,30.21,5,0,6,0.00
2014-1-23,53.4,39.7,30.6,32.0,23.5,15.6,79,55,26,30.24,30.12,6,1,10,0.00
2014-1-24,53.2,36.6,26.8,26.0,17.3,10.7,76,50,21,30.27,30.15,7,1,9,0.00
2014-1-25,51.4,35.4,26.4,29.3,17.6,11.2,77,52,21,30.32,30.18,4,1,6,0.00
2014-1-26,52.9,36.4,27.0,33.8,19.5,15.2,78,54,23,30.18,30.00,5,0,6,0.00
2014-1-27,40.8,35.5,30.2,32.0,21.7,16.1,78,59,39,30.18,30.03,4,0,8,0.00
2014-1-28,45.3,41.3,37.0,39.2,29.9,22.3,79,65,41,30.18,29.94,4,0,6,0.59
2014-1-29,53.4,48.4,42.6,44.6,35.1,21.3,81,63,29,29.97,29.82,10,2,15,0.32
2014-1-30,48.7,42.8,38.8,39.2,26.5,12.3,81,57,24,29.97,29.91,4,0,6,0.03
2014-1-31,46.9,41.0,37.2,33.8,23.4,14.4,77,52,28,30.12,29.97,5,1,8,0.04
2014-2-1,49.5,40.1,32.7,32.0,20.9,12.9,74,49,24,30.12,29.91,5,0,6,0.00
2014-2-2,47.1,39.1,34.3,30.3,27.2,17.6,76,64,31,29.94,29.85,5,0,8,0.00
2014-2-3,44.6,38.6,34.9,33.8,21.5,8.2,80,54,23,30.09,29.91,7,1,8,0.00
2014-2-4,41.2,36.0,30.9,30.5,22.6,10.5,75,59,40,30.21,30.06,6,1,8,0.00
2014-2-5,38.1,31.0,25.2,10.9,0.3,-8.6,43,27,20,30.24,30.06,12,3,16,0.00
2014-2-6,27.1,22.7,20.3,16.1,4.0,-10.3,63,46,21,30.06,29.65,6,2,9,0.00
2014-2-7,30.6,25.7,21.6,24.0,14.1,6.9,77,61,52,29.82,29.56,5,0,8,0.04
2014-2-8,32.2,30.4,0.0,26.1,24.0,0.0,78,76,76,29.85,29.35,0,0,0,0.00
2014-2-12,54.1,52.3,31.8,48.2,46.4,25.4,81,80,77,29.91,0.00,3,0,5,0.35
2014-2-13,56.3,50.2,45.9,46.4,31.9,20.0,81,53,25,30.12,29.73,7,0,8,0.20
2014-2-14,54.0,49.5,44.4,48.2,36.0,20.9,81,62,28,29.94,29.73,7,1,8,1.14
2014-2-15,56.3,46.9,40.3,48.2,35.0,18.0,79,65,35,29.85,29.44,14,1,18,0.63
2014-2-16,50.9,44.7,37.0,35.6,21.0,11.2,76,42,21,30.06,29.82,9,2,13,0.24
2014-2-17,51.8,47.2,42.6,35.6,23.4,11.1,76,42,21,30.00,29.79,10,2,14,0.27
2014-2-18,54.9,45.2,37.4,44.6,33.2,21.8,80,65,28,30.03,29.76,9,1,17,0.67
2014-2-19,46.9,41.1,36.7,33.8,26.3,15.6,81,58,30,30.21,30.00,6,0,9,0.20
2014-2-20,46.6,43.5,40.8,35.6,29.1,19.2,76,58,38,30.24,30.18,5,0,8,0.47
2014-2-21,50.0,42.9,33.3,41.0,30.5,18.0,80,64,28,30.24,30.12,5,0,8,0.04
2014-2-22,50.2,38.4,30.7,33.8,23.3,17.4,80,58,28,30.15,29.97,4,1,6,0.00
2014-2-23,57.0,41.9,30.2,39.2,27.1,17.2,78,60,22,30.00,29.88,5,0,6,0.20
2014-2-24,60.1,50.8,45.9,44.6,37.8,30.9,79,64,34,29.97,29.88,5,0,8,0.11
2014-2-25,54.9,45.3,38.8,42.8,31.4,19.1,81,62,28,29.94,29.82,5,1,8,0.00
2014-2-26,49.1,40.9,33.8,32.0,23.1,16.5,77,52,28,29.85,29.59,4,0,6,0.00
2014-2-27,56.1,45.7,39.2,44.6,34.0,24.4,80,65,35,29.68,29.56,4,0,6,0.24
2014-2-28,48.4,44.8,39.9,41.0,37.2,32.0,81,75,52,29.62,29.35,5,0,7,0.12
2014-3-1,50.9,47.7,45.3,46.4,42.2,39.2,81,80,77,29.68,29.44,4,0,6,0.63
2014-3-2,55.0,50.9,47.3,48.2,38.5,23.5,81,65,30,29.82,29.65,8,1,11,0.43
2014-3-3,58.1,51.0,43.3,46.4,35.2,26.0,82,57,31,29.94,29.73,6,1,9,0.20
2014-3-4,63.5,52.1,41.5,50.0,32.3,18.6,81,53,18,30.00,29.79,7,1,7,0.00
2014-3-5,58.6,54.2,50.4,53.6,42.8,23.8,81,67,30,29.79,29.47,8,1,14,0.71
2014-3-6,54.3,50.4,48.2,37.4,29.1,19.5,63,45,26,30.12,29.65,9,1,17,0.47
2014-3-7,62.2,50.7,40.6,46.4,29.3,17.1,81,50,19,30.21,30.03,5,1,7,0.00
2014-3-8,58.1,49.2,38.7,50.0,34.9,21.3,80,61,26,30.06,29.85,4,0,5,0.27
2014-3-9,58.6,54.9,50.9,50.0,44.2,37.4,81,68,43,30.00,29.88,4,0,8,1.41
2014-3-10,52.9,48.0,37.2,44.6,27.7,16.3,82,48,26,30.41,29.94,9,2,11,0.08
2014-3-11,57.2,43.1,32.0,35.6,23.6,16.0,79,51,25,30.44,30.27,7,1,11,0.00
2014-3-12,63.3,45.5,32.0,35.6,21.6,12.3,78,46,16,30.30,30.06,5,1,7,0.00
2014-3-13,62.6,47.5,32.9,35.6,22.3,14.2,76,43,16,30.09,30.00,6,1,8,0.00
2014-3-14,61.5,50.7,41.4,46.4,32.3,20.5,80,53,22,30.24,30.00,6,1,8,0.20
2014-3-15,67.1,50.6,36.5,42.8,26.2,15.2,80,47,15,30.27,30.18,6,1,8,0.00
2014-3-16,61.7,54.0,42.8,39.2,28.1,15.4,67,40,19,30.27,29.91,8,2,11,0.39
2014-3-17,50.0,43.4,38.1,33.8,20.5,9.4,73,43,21,30.32,30.06,6,1,9,0.16
2014-3-18,57.4,43.3,30.9,28.2,18.8,13.3,72,41,22,30.30,30.06,8,1,11,0.00
2014-3-19,55.4,44.3,32.2,33.8,21.6,15.3,77,44,23,30.18,30.06,7,1,9,0.00
2014-3-20,53.4,43.1,33.6,37.4,17.0,6.2,80,40,18,30.30,30.18,8,1,11,0.00
2014-3-21,54.7,39.2,27.3,25.1,13.9,6.3,70,39,18,30.21,30.09,8,1,11,0.00
2014-3-22,59.0,41.8,27.9,25.3,14.4,8.0,70,37,17,30.21,30.09,7,1,10,0.00
2014-3-23,61.5,44.3,29.8,26.1,16.3,11.2,68,37,16,30.21,30.09,6,1,9,0.00
2014-3-24,72.1,50.5,33.3,35.6,21.0,12.5,75,38,14,30.12,29.82,6,0,9,0.00
2014-3-25,57.0,48.5,43.7,33.8,26.4,17.5,63,43,25,29.85,29.65,9,1,13,0.20
2014-3-26,51.1,46.2,43.0,37.4,30.3,21.8,77,56,33,29.65,29.53,7,1,9,0.47
2014-3-27,45.9,44.2,43.2,24.7,23.7,21.7,48,44,40,29.62,29.59,7,1,10,0.12
2014-3-28,46.0,45.8,45.7,39.2,37.0,33.8,74,71,63,29.85,29.82,4,0,5,0.15
2014-3-29,54.9,48.1,43.5,42.8,29.8,18.7,80,51,27,29.88,29.76,8,1,13,0.20
2014-3-30,53.4,46.2,39.9,37.4,25.2,11.7,77,49,21,29.94,29.88,8,1,10,0.12
2014-3-31,50.2,39.3,34.9,33.8,25.3,16.8,77,60,27,29.88,29.68,5,0,8,0.00
2014-4-1,52.9,45.9,39.9,37.4,25.7,12.4,77,50,21,29.88,29.68,4,0,5,0.04
2014-4-2,60.4,49.7,41.9,41.0,24.8,11.2,76,44,17,29.97,29.88,5,0,8,0.00
2014-4-3,59.5,47.8,39.0,37.4,24.5,11.6,74,45,17,29.97,29.85,7,1,12,0.04
2014-4-4,58.3,49.4,45.3,39.2,28.6,14.0,77,49,19,29.94,29.88,6,0,8,0.23
2014-4-5,54.0,49.9,46.6,44.6,35.7,23.5,79,61,31,30.12,29.94,6,0,10,0.40
2014-4-6,65.5,54.7,46.9,50.0,35.8,22.4,81,54,20,30.24,30.12,6,0,9,0.00
2014-4-7,75.0,55.9,39.9,42.8,30.4,19.4,80,45,13,30.21,30.00,5,0,9,0.00
2014-4-8,70.3,56.8,46.4,48.2,32.1,20.4,81,46,17,30.12,29.97,7,0,9,0.00
2014-4-9,62.6,53.5,40.3,42.8,25.7,9.3,73,39,16,30.15,30.06,8,1,13,0.00
2014-4-10,64.8,48.3,33.1,32.0,18.1,10.5,74,35,15,30.15,29.97,8,1,11,0.00
2014-4-11,67.3,50.5,35.2,33.8,20.9,13.6,73,36,15,30.03,29.88,9,1,15,0.00
2014-4-12,62.6,49.1,38.3,35.6,22.0,11.2,72,39,16,30.03,29.94,7,1,10,0.00
2014-4-13,72.3,52.6,34.0,33.8,20.5,12.0,74,34,14,30.12,30.00,8,1,12,0.00
2014-4-14,69.8,53.5,37.0,23.6,18.4,12.7,51,28,14,30.12,30.00,4,0,6,0.00
2014-4-15,50.2,48.2,46.9,24.6,23.1,19.7,41,37,30,30.15,30.09,0,0,0,0.00
2014-4-16,61.7,53.0,43.9,27.8,21.3,16.1,46,31,19,30.09,29.94,7,0,10,0.00
2014-4-17,54.1,51.2,47.1,44.6,34.7,26.4,73,54,36,29.97,29.82,6,0,10,0.39
2014-4-18,60.6,50.0,39.2,41.0,24.1,13.4,80,43,19,30.06,29.82,6,1,10,0.00
2014-4-19,58.5,48.1,37.6,39.2,24.6,15.2,76,43,22,30.12,29.79,10,2,15,0.04
2014-4-20,65.5,52.7,37.9,39.2,24.4,15.7,74,38,15,30.21,30.06,7,1,8,0.00
2014-4-21,64.4,51.7,45.1,37.4,27.9,13.4,73,44,16,30.06,29.82,6,1,8,0.04
2014-4-22,54.0,47.3,42.1,39.2,26.9,12.1,74,47,21,29.94,29.85,10,1,14,0.51
2014-4-23,55.4,49.8,44.4,44.6,28.5,19.0,75,45,26,29.94,29.79,8,1,10,0.39
2014-4-24,56.7,51.6,43.5,44.6,28.0,17.5,75,42,25,29.88,29.73,9,1,11,0.40
2014-4-25,53.8,45.4,39.7,35.6,27.3,16.4,74,51,26,29.85,29.79,6,0,9,0.31
2014-4-26,56.8,47.7,39.9,39.2,23.9,10.5,77,46,17,29.85,29.70,8,1,10,0.08
2014-4-27,54.7,47.1,40.8,41.0,25.7,16.0,77,46,23,30.12,29.73,8,1,13,0.24
2014-4-28,65.8,50.6,35.1,37.4,22.0,12.4,76,39,15,30.24,30.12,6,1,9,0.00
2014-4-29,76.8,57.4,39.0,41.0,25.9,17.3,75,36,15,30.35,30.18,6,0,9,0.00
2014-4-30,52.0,51.5,51.4,32.0,31.8,30.5,46,46,44,30.21,30.21,0,0,0,0.00
2014-5-1,88.2,66.8,46.4,31.0,26.1,17.1,47,25,13,30.00,29.91,4,1,9,0.00
2014-5-2,72.0,58.9,45.5,35.6,25.9,20.0,60,31,16,30.03,29.88,7,1,9,0.00
2014-5-3,62.6,55.9,50.2,37.4,24.9,14.6,59,32,16,29.94,29.76,8,1,12,0.04
2014-5-4,61.5,53.8,49.6,42.8,32.0,17.8,75,47,19,29.91,29.79,8,1,11,0.23
2014-5-5,62.1,52.6,47.8,42.8,29.6,15.2,77,46,19,30.00,29.91,5,0,8,0.28
2014-5-6,62.2,53.0,41.5,42.8,25.7,10.9,76,40,16,30.00,29.91,5,0,8,0.00
2014-5-7,64.2,50.6,34.9,33.8,20.6,14.2,71,35,16,30.00,29.85,6,0,10,0.00
2014-5-8,60.3,53.1,48.0,44.6,35.1,28.1,70,51,32,29.88,29.68,6,0,9,0.23
2014-5-9,56.7,50.4,45.7,42.8,30.0,19.0,76,48,26,30.03,29.85,7,1,10,0.24
2014-5-10,61.2,51.1,45.1,41.0,29.4,16.0,78,48,19,30.21,30.00,6,0,9,0.08
2014-5-11,66.4,54.5,44.1,44.6,28.8,15.6,80,44,17,30.24,30.15,7,1,11,0.00
2014-5-12,77.4,58.3,40.6,42.8,24.6,14.2,76,34,13,30.21,30.09,6,1,10,0.00
2014-5-13,81.0,61.9,43.3,33.8,25.7,18.3,62,29,13,30.21,30.12,7,1,11,0.00
2014-5-14,87.3,66.8,47.1,42.8,30.8,22.8,71,32,13,30.15,29.97,5,1,9,0.00
2014-5-15,81.9,66.6,52.5,48.2,30.5,18.3,73,32,13,30.06,29.94,6,0,10,0.00
2014-5-16,71.6,57.6,43.7,37.4,26.7,19.7,65,34,16,30.09,30.00,6,1,10,0.00
2014-5-17,70.3,58.7,49.3,44.6,29.8,18.8,70,37,17,30.03,29.79,6,0,9,0.04
2014-5-18,59.2,54.1,51.4,46.4,38.5,27.0,76,57,31,29.88,29.82,7,0,8,0.59
2014-5-19,68.7,57.9,50.2,46.4,31.1,18.4,79,43,17,29.97,29.88,7,1,11,0.16
2014-5-20,73.0,58.4,43.2,44.6,29.0,20.9,76,38,16,30.06,29.97,8,1,11,0.00
2014-5-21,72.0,58.3,49.5,42.8,27.6,18.6,75,34,14,30.09,30.00,6,1,11,0.00
2014-5-22,79.2,62.7,46.8,44.6,31.2,23.0,75,36,15,30.03,29.88,6,1,10,0.00
2014-5-23,70.2,61.7,54.9,51.8,37.1,28.1,74,43,23,30.06,29.94,4,0,8,0.00
2014-5-24,69.3,60.0,51.8,37.4,27.9,19.9,46,31,17,30.12,30.03,7,1,9,0.00
2014-5-25,74.5,60.5,45.7,44.6,28.9,18.1,74,36,14,30.06,29.91,8,1,12,0.00
2014-5-26,67.5,59.9,49.8,35.6,25.1,16.1,45,28,17,30.09,30.00,6,1,10,0.00
2014-5-27,65.1,55.1,47.7,37.4,25.6,15.7,63,34,16,30.09,30.03,7,1,10,0.35
2014-5-28,60.6,53.4,47.3,44.6,31.3,20.0,77,47,24,30.18,30.06,7,0,8,0.16
2014-5-29,67.3,55.3,40.8,41.0,25.0,17.1,74,36,17,30.18,29.97,8,1,11,0.00
2014-5-30,73.4,56.7,43.5,41.0,28.5,20.4,78,39,16,30.00,29.85,6,1,10,0.00
2014-5-31,74.1,59.6,45.5,42.8,28.8,20.4,73,36,16,30.03,29.94,6,1,9,0.00
2014-6-1,70.0,57.9,50.7,42.8,29.4,20.2,72,36,17,30.03,29.88,6,1,9,0.00
2014-6-2,77.7,60.7,44.4,46.4,29.9,21.9,75,37,15,29.88,29.79,8,1,11,0.00
2014-6-3,67.3,56.7,48.6,37.4,26.8,19.9,60,34,17,30.03,29.88,6,0,8,0.00
2014-6-4,73.4,57.7,41.4,41.0,28.9,20.4,74,38,16,30.06,29.97,7,1,11,0.00
2014-6-5,75.6,60.1,43.7,44.6,24.9,15.7,75,31,13,30.06,29.94,7,1,10,0.00
2014-6-6,77.9,61.3,42.8,32.0,22.5,15.7,55,26,13,30.03,29.91,8,1,12,0.00
2014-6-7,76.1,62.1,45.1,33.8,25.0,15.2,49,26,15,30.09,30.00,8,1,11,0.00
2014-6-8,79.5,65.1,48.6,41.0,28.9,22.4,64,29,15,30.12,29.97,8,1,12,0.00
2014-6-9,73.8,63.2,50.9,42.8,26.5,18.3,66,28,13,30.06,29.94,8,1,12,0.00
2014-6-10,74.8,60.2,45.3,33.8,24.1,16.8,56,28,13,30.06,29.94,7,1,10,0.00
2014-6-11,77.4,61.3,45.1,42.8,27.8,18.3,72,33,13,29.97,29.76,7,0,10,0.00
2014-6-12,65.8,56.7,50.7,41.0,28.3,21.8,66,35,20,29.88,29.79,8,1,9,0.00
2014-6-13,61.3,56.2,52.2,46.4,34.3,23.2,75,46,25,30.12,29.88,5,0,6,0.15
2014-6-14,66.4,57.6,50.9,41.0,26.5,17.8,65,34,17,30.12,29.94,6,0,8,0.00
2014-6-15,61.5,55.8,48.4,42.8,29.3,21.5,70,39,24,29.94,29.82,5,0,10,0.00
2014-6-16,57.6,51.8,47.3,41.0,30.4,20.2,72,45,25,30.00,29.85,6,0,8,0.52
2014-6-17,59.7,53.2,47.7,48.2,36.2,23.2,80,56,26,30.09,30.00,3,0,4,0.04
2014-6-18,73.6,59.4,48.0,46.4,30.6,16.0,80,42,13,30.09,29.94,5,0,8,0.00
2014-6-19,79.0,64.7,45.3,42.8,27.7,21.3,71,29,15,30.03,29.88,7,1,11,0.00
2014-6-20,70.9,60.3,50.2,46.4,30.0,15.8,71,34,15,30.09,30.00,6,1,9,0.00
2014-6-21,75.0,58.3,43.0,41.0,26.1,14.8,73,35,13,30.03,29.91,8,1,11,0.00
2014-6-22,79.9,62.2,45.0,39.2,27.0,18.3,68,30,13,30.00,29.85,7,1,9,0.00
2014-6-23,79.0,63.5,50.7,39.2,28.1,15.0,55,30,14,30.03,29.91,7,1,11,0.00
2014-6-24,79.3,64.1,48.0,46.4,31.2,22.6,75,36,15,30.06,29.91,6,1,8,0.00
2014-6-25,70.7,61.9,54.0,53.6,40.2,29.2,75,48,23,29.94,29.76,5,0,6,0.07
2014-6-26,65.5,61.5,58.3,55.4,46.3,32.0,80,59,29,29.82,29.76,4,0,6,0.36
2014-6-27,69.3,62.1,58.3,55.4,40.6,26.7,80,50,22,29.94,29.73,8,1,10,0.27
2014-6-28,70.9,62.9,57.2,48.2,33.6,25.0,69,36,20,30.03,29.91,5,1,9,0.00
2014-6-29,74.5,64.0,55.8,48.2,30.8,20.1,70,33,16,30.12,30.03,6,1,12,0.00
2014-6-30,82.2,64.7,46.9,46.4,32.0,24.3,75,35,14,30.09,29.82,8,1,10,0.00
2014-7-1,95.5,72.7,53.8,53.6,35.7,24.0,76,34,11,29.82,29.68,6,1,8,0.00
2014-7-2,82.6,67.9,57.9,50.0,33.5,22.2,70,32,14,29.94,29.79,5,1,10,0.00
2014-7-3,74.3,62.1,52.5,46.4,32.3,20.8,70,36,16,30.03,29.94,6,0,10,0.00
2014-7-4,81.5,64.9,51.1,48.2,32.1,21.8,77,35,14,30.00,29.88,6,1,8,0.00
2014-7-5,86.7,67.7,51.4,44.6,31.0,19.4,68,31,13,30.03,29.97,8,1,9,0.00
2014-7-6,88.3,69.5,51.1,42.8,31.2,23.0,62,28,13,30.09,29.97,8,1,12,0.00
2014-7-7,89.8,73.4,56.1,50.0,35.2,25.6,71,30,12,30.03,29.85,7,1,11,0.00
2014-7-8,88.0,72.9,59.4,53.6,37.6,26.9,72,33,13,29.94,29.85,6,1,10,0.00
2014-7-9,87.1,72.0,56.7,44.6,30.9,23.0,57,25,13,29.94,29.82,7,2,11,0.00
2014-7-10,86.0,68.1,51.6,48.2,30.6,19.4,74,29,13,29.88,29.76,6,1,8,0.00
2014-7-11,80.1,66.9,51.6,46.4,34.5,26.6,59,33,15,29.94,29.82,4,0,5,0.00
2014-7-12,89.8,71.9,56.8,53.6,37.9,25.7,77,36,12,30.00,29.94,5,1,9,0.00
2014-7-13,75.2,65.9,59.0,41.0,36.1,32.0,48,34,21,30.06,30.00,5,1,8,0.00
2014-7-14,88.2,70.1,60.4,42.8,35.9,24.3,50,32,13,30.09,29.94,7,1,11,0.00
2014-7-15,92.3,73.7,56.8,51.8,35.9,24.3,74,31,12,30.00,29.82,8,1,10,0.00
2014-7-16,92.1,75.2,59.4,51.8,34.7,23.5,67,27,12,29.94,29.82,6,1,8,0.00
2014-7-17,82.9,68.2,59.9,33.8,25.4,17.1,37,21,13,29.94,29.88,4,0,5,0.00
2014-7-18,61.3,58.1,56.3,28.9,26.0,23.4,35,29,24,29.97,29.94,0,0,0,0.00
2014-7-20,74.7,64.5,58.5,51.8,34.4,23.0,70,35,16,29.91,29.85,6,1,8,0.00
2014-7-21,77.2,63.8,52.5,44.6,32.9,24.0,67,35,15,29.97,29.88,5,1,7,0.00
2014-7-22,77.7,66.7,58.6,53.6,38.2,24.3,75,40,15,29.97,29.91,4,0,5,0.00
2014-7-23,63.3,59.3,56.1,48.2,36.1,23.6,68,44,25,30.12,29.94,5,0,7,0.48
2014-7-24,74.3,61.6,53.2,44.6,29.9,20.0,68,34,16,30.21,30.06,5,1,8,0.00
2014-7-25,78.4,62.4,46.2,46.4,30.7,20.8,75,37,15,30.09,29.94,7,1,10,0.00
2014-7-26,84.2,63.2,48.7,48.2,33.2,24.9,74,39,14,30.06,29.97,8,1,12,0.00
2014-7-27,83.8,66.4,50.5,46.4,33.4,26.1,69,33,14,30.03,29.94,5,1,7,0.00
2014-7-28,92.1,73.5,56.8,57.2,37.2,24.3,76,34,12,30.00,29.91,7,1,10,0.00
2014-7-29,91.0,73.1,57.0,53.6,34.9,23.3,71,30,12,30.03,29.94,6,1,10,0.00
2014-7-30,89.2,71.7,55.9,51.8,33.0,23.0,70,29,13,30.03,29.91,8,1,12,0.00
2014-7-31,88.9,72.7,57.0,44.6,32.0,23.0,58,26,13,30.00,29.85,6,1,8,0.00
2014-8-1,89.2,74.2,62.1,55.4,35.6,25.6,71,29,13,29.94,29.82,7,1,9,0.00
2014-8-2,88.0,71.9,58.3,50.0,33.8,24.3,66,29,13,29.94,29.85,6,1,8,0.00
2014-8-3,85.5,70.3,55.8,50.0,35.3,26.6,70,32,13,29.97,29.82,5,1,8,0.00
2014-8-4,85.8,71.7,59.5,57.2,36.0,21.3,73,33,13,29.94,29.82,6,1,8,0.00
2014-8-5,83.1,66.8,55.4,41.0,29.2,18.2,60,28,13,30.03,29.94,6,1,9,0.00
2014-8-6,84.2,67.6,51.4,39.2,30.4,23.3,56,28,14,30.09,29.94,8,1,12,0.00
2014-8-7,85.3,68.8,54.5,50.0,31.3,17.5,72,30,13,30.03,29.91,7,1,9,0.00
2014-8-8,80.1,65.4,50.7,35.6,25.7,18.0,47,25,13,30.06,29.94,8,2,14,0.00
2014-8-9,84.4,66.7,48.6,41.0,28.0,18.3,62,27,13,30.06,29.88,8,1,11,0.00
2014-8-10,88.5,70.6,53.1,50.0,32.2,24.7,51,27,13,29.97,29.79,7,1,12,0.00
2014-8-11,79.0,73.0,69.1,39.2,32.8,25.6,32,23,15,29.85,29.82,3,0,6,0.00
2014-8-13,74.3,65.0,56.5,46.4,33.8,27.3,66,33,18,29.94,29.88,6,0,8,0.00
2014-8-14,77.7,67.7,59.9,42.8,32.3,23.0,52,30,15,29.94,29.88,5,0,8,0.00
2014-8-15,80.4,68.2,60.3,42.8,34.2,23.0,50,31,15,30.00,29.91,6,1,9,0.00
2014-8-16,85.3,68.2,53.4,50.0,34.7,23.0,73,35,13,30.03,29.91,8,1,9,0.00
2014-8-17,87.3,70.7,55.6,51.8,33.4,23.0,71,30,13,30.00,29.85,8,1,13,0.00
2014-8-18,88.0,71.2,56.7,50.0,34.4,25.3,68,30,13,29.91,29.70,5,1,9,0.00
2014-8-19,86.4,72.2,59.7,53.6,34.2,24.3,70,30,13,29.82,29.70,7,1,9,0.00
2014-8-20,76.6,64.8,54.5,51.8,30.7,16.9,70,31,13,29.94,29.82,4,1,8,0.00
2014-8-21,81.1,63.0,46.4,39.2,25.6,14.2,62,28,13,30.00,29.85,7,1,10,0.00
2014-8-22,78.8,63.3,49.8,32.0,25.7,20.6,42,26,15,29.97,29.91,8,2,10,0.00
2014-8-23,87.1,68.6,49.5,41.0,27.9,16.7,62,26,13,30.03,29.88,8,2,12,0.00
2014-8-24,82.2,66.5,51.3,37.4,26.5,15.7,50,25,13,29.91,29.76,7,1,8,0.00
2014-8-25,88.3,68.1,49.3,35.6,27.0,16.9,51,25,13,29.91,29.79,9,1,13,0.00
2014-8-26,91.6,71.2,52.9,33.8,27.9,19.4,44,22,12,29.94,29.82,7,1,9,0.00
2014-8-27,91.2,71.8,54.7,37.4,30.2,23.0,46,24,12,29.97,29.91,8,1,9,0.00
2014-8-28,86.4,69.0,54.9,44.6,30.6,19.8,59,27,13,30.03,29.91,6,1,9,0.00
2014-8-29,79.0,64.7,51.6,41.0,29.6,21.3,58,30,15,29.94,29.85,7,1,11,0.00
2014-8-30,67.5,61.5,57.7,51.8,37.0,27.9,64,41,24,29.97,29.88,5,0,10,0.08
2014-8-31,73.9,63.0,54.5,50.0,33.4,19.8,73,40,14,30.00,29.94,6,0,8,0.00
2014-9-1,80.6,63.7,48.6,46.4,29.5,20.8,73,33,15,30.00,29.85,8,1,11,0.00
2014-9-2,77.2,62.6,48.7,46.4,30.5,19.6,70,34,15,29.94,29.82,7,1,11,0.00
2014-9-3,72.0,59.0,47.1,41.0,24.2,14.6,67,30,14,30.03,29.94,7,1,10,0.00
2014-9-4,84.6,60.9,41.4,37.4,25.1,15.7,67,30,13,29.97,29.79,6,1,10,0.00
2014-9-5,93.0,69.0,47.7,33.8,26.8,15.7,51,24,12,29.91,29.76,10,1,13,0.00
2014-9-6,90.9,69.2,48.6,32.0,22.8,11.8,38,19,12,29.85,29.70,6,1,8,0.00
2014-9-7,80.4,62.9,48.2,33.8,26.3,18.5,50,28,13,29.82,29.73,5,1,8,0.00
2014-9-8,79.0,62.6,47.1,41.0,27.7,18.3,67,31,13,29.91,29.79,8,1,13,0.00
2014-9-9,72.9,62.8,51.6,35.6,24.3,15.1,41,24,14,30.06,29.91,6,1,8,0.00
2014-9-10,77.7,60.3,44.8,33.8,24.2,15.7,57,28,13,30.09,29.94,8,1,13,0.00
2014-9-11,84.2,66.6,48.2,39.2,24.2,10.7,72,24,13,30.00,29.85,9,2,16,0.00
2014-9-12,83.3,61.8,43.0,29.0,18.1,10.4,34,19,13,29.88,29.76,6,1,9,0.00
2014-9-13,86.5,62.2,42.3,29.7,21.4,14.2,44,23,13,29.82,29.70,5,1,8,0.00
2014-9-14,89.1,64.5,45.3,32.0,22.4,14.2,41,22,13,29.79,29.70,6,1,8,0.00
2014-9-15,87.6,65.8,50.0,30.5,22.8,14.9,36,21,13,29.79,29.68,4,0,6,0.00
2014-9-16,77.2,62.5,48.0,30.4,24.9,20.0,44,26,15,29.85,29.73,6,1,10,0.00
2014-9-17,73.6,62.8,54.9,37.4,30.4,22.6,48,31,16,29.73,29.65,5,0,6,0.00
2014-9-18,71.6,62.3,52.7,48.2,34.1,25.8,71,37,19,29.91,29.65,4,0,6,0.00
2014-9-19,81.0,64.6,52.0,50.0,32.4,17.5,74,37,13,30.00,29.88,7,1,9,0.00
2014-9-20,86.4,65.3,48.9,41.0,30.5,24.3,60,31,13,29.94,29.70,5,1,9,0.00
2014-9-21,83.8,66.7,53.2,50.0,32.0,0.0,70,33,13,29.91,29.76,8,1,9,0.00
2014-9-22,68.5,61.3,54.7,37.4,32.1,26.9,47,34,22,29.94,29.82,5,0,8,0.00
2014-9-23,72.1,61.8,54.0,46.4,35.4,23.0,69,41,16,29.85,29.62,3,0,4,0.00
2014-9-24,62.1,60.4,58.5,55.4,52.4,37.4,79,75,42,29.79,29.70,3,0,6,1.33
2014-9-25,70.2,59.6,53.1,55.4,40.8,20.8,79,57,17,29.85,29.73,7,1,8,0.04
2014-9-26,72.0,59.9,50.9,50.0,34.0,20.0,79,45,16,29.97,29.85,6,0,9,0.00
2014-9-27,65.8,56.2,49.8,42.8,35.1,26.7,68,46,24,30.00,29.91,5,0,8,0.00
2014-9-28,72.7,58.4,48.2,50.0,34.7,23.0,76,47,16,29.91,29.79,6,1,10,0.00
2014-9-29,65.5,55.9,47.3,50.0,37.7,23.0,76,53,20,29.97,29.82,7,0,11,0.04
2014-9-30,65.3,57.0,52.0,50.0,36.8,19.0,79,53,18,30.09,29.97,5,0,9,0.12
2014-10-1,65.7,55.3,46.0,48.2,31.8,16.7,79,48,18,30.12,30.03,7,1,11,0.00
2014-10-2,69.8,53.7,40.5,44.6,27.2,18.4,75,41,17,30.12,30.06,6,1,8,0.00
2014-10-3,76.8,57.2,42.1,44.6,29.9,21.3,74,41,15,30.09,30.00,5,1,7,0.00
2014-10-4,79.2,59.8,44.8,46.4,31.1,20.0,75,41,15,30.06,29.94,5,1,8,0.00
2014-10-5,80.1,61.8,47.3,50.0,32.5,20.2,75,40,15,30.00,29.85,5,0,8,0.00
2014-10-6,80.4,62.9,49.5,51.8,35.0,24.3,77,42,15,29.88,29.76,6,1,8,0.00
2014-10-7,80.2,63.4,50.7,55.4,36.4,24.3,77,43,15,29.82,29.70,6,1,8,0.00
2014-10-8,73.0,58.7,50.0,50.0,34.8,20.0,75,46,16,29.85,29.79,6,1,10,0.00
2014-10-9,72.9,56.8,44.4,46.4,30.1,20.4,75,42,16,29.88,29.79,4,0,6,0.00
2014-10-10,73.9,59.8,45.3,48.2,30.2,20.9,75,38,16,29.94,29.88,7,1,9,0.00
2014-10-11,68.2,59.6,50.7,51.8,32.8,19.3,74,40,17,30.12,29.94,6,1,9,0.08
2014-10-12,68.4,54.4,43.7,46.4,29.5,20.0,75,44,17,30.15,29.88,6,0,8,0.00
2014-10-13,74.1,56.1,42.4,48.2,27.4,15.1,76,41,13,29.88,29.62,5,0,8,0.00
2014-10-14,58.8,55.1,53.4,50.0,46.3,27.7,79,73,34,29.73,29.41,4,0,8,0.98
2014-10-15,59.7,54.6,50.2,48.2,32.2,19.8,80,46,22,29.88,29.41,10,1,13,0.24
2014-10-16,68.9,55.8,45.5,42.8,30.7,16.5,74,45,15,29.85,29.62,5,0,8,0.00
2014-10-17,61.2,56.8,52.9,48.2,39.6,32.0,74,53,34,29.73,29.59,4,0,8,0.12
2014-10-18,74.5,62.5,53.6,55.4,40.0,24.1,79,51,16,29.79,29.62,5,0,8,0.04
2014-10-19,74.7,59.5,50.0,50.0,36.8,23.5,78,49,16,29.65,29.50,5,0,8,0.00
2014-10-20,60.3,56.1,50.9,51.8,44.1,32.0,78,65,35,29.73,29.56,4,0,5,0.63
2014-10-21,61.9,54.7,50.2,50.0,35.9,20.5,80,54,21,29.85,29.68,6,0,9,0.04
2014-10-22,65.7,56.8,53.6,50.0,40.8,25.7,78,57,23,29.68,29.53,6,0,10,1.06
2014-10-23,57.2,54.2,48.9,50.0,46.4,35.6,80,75,50,29.79,29.59,4,0,6,0.35
2014-10-24,53.6,50.6,48.2,48.2,44.9,41.0,80,79,77,29.82,29.44,3,0,6,0.16
2014-10-25,66.4,54.9,47.8,46.4,36.4,19.3,81,55,17,29.76,29.20,10,2,17,0.47
2014-10-26,57.2,49.7,46.9,42.8,37.1,21.8,78,64,26,29.97,29.76,4,0,8,0.83
2014-10-27,61.0,51.0,44.6,42.8,32.3,16.6,81,54,19,29.97,29.79,5,0,8,0.00
2014-10-28,58.3,53.0,46.9,48.2,39.7,30.2,80,62,35,29.85,29.73,6,0,8,0.20
2014-10-29,64.4,56.0,49.6,53.6,43.5,26.3,81,66,24,29.91,29.76,3,0,6,0.00
2014-10-30,62.2,57.5,55.4,55.4,50.0,39.2,81,76,44,29.76,29.56,4,0,6,0.75
2014-10-31,57.9,52.7,45.9,51.8,40.1,21.9,82,65,25,29.62,29.44,4,0,10,0.35
2014-11-1,54.5,48.0,42.8,41.0,33.1,0.0,79,59,27,29.88,29.12,3,0,4,0.04
2014-11-2,53.6,48.7,43.7,46.4,38.9,29.0,80,69,39,30.00,29.88,4,0,5,0.12
2014-11-3,55.4,52.1,49.6,48.2,45.1,42.8,81,77,72,30.00,29.91,3,0,5,0.23
2014-11-4,58.5,55.5,51.6,50.0,43.9,32.0,82,67,37,30.06,29.88,6,0,10,0.48
2014-11-5,65.1,56.6,50.5,53.6,44.1,32.0,82,65,30,30.06,29.76,4,0,6,0.00
2014-11-6,61.9,53.5,47.1,51.8,39.4,26.1,82,62,26,30.09,29.70,6,0,9,0.00
2014-11-7,47.1,44.2,41.2,41.0,38.5,35.6,80,79,78,30.15,30.09,0,0,0,0.00
2014-11-8,41.2,41.2,41.2,35.6,35.6,35.6,80,80,80,30.12,30.12,0,0,0,0.00
2014-11-9,41.2,41.2,41.2,35.6,35.6,35.6,80,80,80,30.12,30.12,0,0,0,0.00
2014-11-10,41.2,41.2,41.2,35.6,35.6,35.6,80,80,80,30.12,30.12,0,0,0,0.00
2014-11-11,41.2,41.2,41.2,35.6,35.6,35.6,80,80,80,30.12,30.12,0,0,0,0.00
2014-11-12,41.2,41.2,41.2,35.6,35.6,35.6,80,80,80,30.12,30.12,0,0,0,0.00
2014-11-13,41.2,34.1,33.1,35.6,27.5,13.6,81,77,44,30.12,29.56,6,1,9,1.42
2014-11-14,36.7,34.8,33.3,29.9,28.3,25.7,81,77,65,29.88,29.68,4,0,8,0.63
2014-11-15,36.3,36.3,36.3,28.9,28.9,28.9,74,74,74,29.88,29.88,0,0,0,0.63
2014-11-16,36.3,36.3,36.3,28.9,28.9,28.9,74,74,74,29.88,29.88,0,0,0,0.63
2014-11-17,36.3,36.3,36.3,28.9,28.9,28.9,74,74,74,29.88,29.88,0,0,0,0.63
2014-11-18,36.3,36.3,36.3,28.9,28.9,28.9,74,74,74,29.88,29.88,0,0,0,0.63
2014-11-19,46.6,40.0,33.1,37.4,20.5,8.0,74,49,22,29.76,29.56,5,0,6,0.20
2014-11-20,56.1,49.0,44.1,50.0,42.2,37.4,81,77,65,29.73,29.65,0,0,0,0.08
2014-11-21,57.9,50.6,44.8,48.2,40.5,32.0,82,70,38,29.70,29.26,9,1,13,0.39
2014-11-22,53.1,47.4,40.3,42.8,36.3,23.9,81,66,35,30.00,29.41,5,0,8,0.24
2014-11-23,55.8,47.5,40.3,44.6,30.2,19.3,81,56,25,30.06,30.00,6,1,8,0.04
2014-11-24,57.9,48.7,39.2,46.4,31.1,15.6,80,54,22,30.09,29.97,6,0,8,0.04
2014-11-25,62.1,57.9,52.5,37.4,32.3,28.1,55,38,29,30.09,30.00,7,2,9,0.00
2014-11-26,62.6,53.9,46.2,48.2,36.9,26.7,75,55,26,30.00,29.70,4,0,5,0.00
2014-11-27,54.0,52.4,51.3,46.4,41.2,37.4,78,65,52,29.70,29.53,5,0,8,0.27
2014-11-28,55.6,51.8,44.8,46.4,41.1,30.0,81,67,42,29.53,29.20,8,0,13,0.67
2014-11-29,44.8,39.9,32.5,35.6,25.8,14.4,75,58,32,29.68,29.32,7,0,11,0.24
2014-11-30,38.1,32.5,30.0,25.1,17.6,6.4,77,56,32,29.70,29.59,6,1,8,0.00
2014-12-1,36.7,33.7,29.7,29.9,19.4,4.1,78,57,33,29.76,29.68,4,0,5,0.08
2014-12-2,36.7,34.6,32.9,32.0,29.2,27.6,81,80,78,29.73,29.41,5,1,9,0.03
2014-12-3,42.8,36.2,33.6,28.3,24.2,16.2,80,63,38,29.41,29.32,5,1,7,0.00
2014-12-4,42.3,42.3,42.3,18.9,18.9,18.9,39,39,39,29.32,29.32,0,0,4,0.00
2014-12-5,42.3,42.3,42.3,18.9,18.9,18.9,39,39,39,29.32,29.32,0,0,4,0.00
2014-12-6,42.3,42.3,42.3,18.9,18.9,18.9,39,39,39,29.32,29.32,0,0,4,0.00
2014-12-7,42.3,42.3,42.3,18.9,18.9,18.9,39,39,39,29.32,29.32,0,0,4,0.00
2014-12-8,42.3,42.3,42.3,18.9,18.9,18.9,39,39,39,29.32,29.32,0,0,4,0.00
2014-12-9,42.3,42.3,42.3,18.9,18.9,18.9,39,39,39,29.32,29.32,0,0,4,0.00
2014-12-10,57.7,51.9,45.7,50.0,43.4,31.1,82,73,38,29.29,28.97,9,0,11,0.48
2014-12-11,61.9,51.7,43.2,51.8,31.1,13.3,82,53,16,29.23,28.70,13,2,24,0.08
2014-12-12,53.2,44.9,38.5,42.8,31.5,25.9,76,61,36,29.65,29.23,4,0,5,0.00
2014-12-13,54.3,41.4,33.1,44.6,26.6,13.4,83,60,20,29.79,29.65,4,0,5,0.00
2014-12-14,41.2,35.5,31.3,35.6,29.7,25.1,83,79,73,29.73,29.44,4,0,7,0.00
2014-12-15,48.6,44.2,40.5,37.4,25.7,14.5,82,50,27,29.47,29.32,8,1,12,0.03
2014-12-16,56.3,45.7,41.7,41.0,34.5,20.5,78,67,25,29.35,29.26,7,1,11,0.04
2014-12-17,49.5,44.1,40.3,39.2,33.4,27.4,77,66,47,29.50,29.26,4,0,8,0.16
2014-12-18,53.1,47.5,39.9,42.8,33.9,26.4,80,61,36,29.50,29.29,5,0,9,0.12
2014-12-19,53.4,47.1,44.1,41.0,34.4,19.3,80,64,27,29.56,29.41,4,0,6,0.55
2014-12-20,58.6,51.1,45.5,48.2,40.8,33.8,81,68,45,29.44,29.23,8,1,12,1.06
2014-12-21,59.2,53.1,49.3,48.2,44.8,35.6,82,74,41,29.70,29.32,9,1,12,0.79
2014-12-22,56.1,50.3,47.1,48.2,42.0,29.3,82,73,36,29.88,29.68,0,0,0,0.08
2014-12-23,57.4,51.9,47.8,46.4,40.4,32.0,80,66,43,29.79,29.53,0,0,0,0.08
2014-12-24,54.0,42.1,36.0,48.2,34.1,0.0,80,74,40,29.62,28.88,11,1,17,1.02
2014-12-25,47.3,42.7,39.4,39.2,31.4,20.6,80,66,35,29.76,29.59,2,0,4,0.00
2014-12-26,50.2,41.9,34.5,39.2,27.3,16.9,79,60,27,29.82,29.73,0,0,0,0.00
2014-12-27,44.1,39.3,33.1,37.4,30.8,25.5,78,72,50,29.79,29.62,0,0,0,0.28
2014-12-28,46.9,42.2,39.9,39.2,31.9,18.2,80,68,35,29.73,29.62,0,0,0,0.23
2014-12-29,43.5,38.2,31.6,33.8,19.5,-2.1,78,52,22,29.91,29.56,7,0,13,0.12
2014-12-30,37.9,30.3,23.0,1.2,-3.8,-7.5,33,23,19,30.06,29.91,9,2,17,0.00
2014-12-31,34.9,25.6,18.5,4.5,0.4,-3.9,47,35,22,30.00,29.68,7,1,9,0.00
2015-1-1,39.0,26.9,19.9,12.8,5.4,-0.4,57,41,21,29.68,29.15,6,0,8,0.00
2015-1-2,45.7,31.8,24.4,27.9,14.0,7.6,79,50,23,29.62,29.50,6,0,9,0.00